Time;durP1;ratioP1;P1;durP2;ratioP2;P2;SDS_P1;SDS_P2;PMS_P1;PMS_P2;Temp;Humidity;BMP_temperature;BMP_pressure;BME280_temperature;BME280_humidity;BME280_pressure;Samples;Min_cycle;Max_cycle;Signal;HPM_P1;HPM_P2
2023/03/15 00:03:44;;;;;;;;;;;;;;;4.42;48.92;99424.81;6094903;23;19924;-75
2023/03/15 00:06:35;;;;;;;;;;;;;;;4.40;48.86;99442.88;6093093;23;19972;-76
2023/03/15 00:09:23;;;;;;;;;;;;;;;4.36;49.51;99434.25;6095574;23;19968;-74
2023/03/15 00:12:25;;;;;;;;;;;;;;;4.34;49.14;99442.78;6085091;23;20044;-76
2023/03/15 00:14:52;;;;;;;;;;;;;;;4.32;48.77;99431.59;6091631;23;19995;-75
2023/03/15 00:17:33;;;;;;;;;;;;;;;4.32;48.87;99434.19;6092851;23;19921;-74
2023/03/15 00:20:03;;;;;;;;;;;;;;;4.30;49.00;99425.59;6095080;23;19913;-74
2023/03/15 00:22:43;;;;;;;;;;;;;;;4.28;49.19;99424.72;6095555;23;19917;-76
2023/03/15 00:26:34;;;;;;;;;;;;;;;4.28;49.67;99429.88;6074283;23;19940;-75
2023/03/15 00:29:45;;;;;;;;;;;;;;;4.27;49.55;99441.88;6074644;23;19921;-75
2023/03/15 00:32:12;;;;;;;;;;;;;;;4.24;49.65;99440.97;6094111;23;20679;-77
2023/03/15 00:34:39;;;;;;;;;;;;;;;4.24;49.71;99446.97;6091632;23;19972;-75
2023/03/15 00:37:11;;;;;;;;;;;;;;;4.27;49.54;99446.16;6072568;23;19944;-78
2023/03/15 00:40:51;;;;;;;;;;;;;;;4.27;50.01;99435.88;6097008;23;20241;-75
2023/03/15 00:43:27;;;;;;;;;;;;;;;4.29;50.44;99437.59;6097131;23;19928;-77
2023/03/15 00:46:35;;;;;;;;;;;;;;;4.30;50.25;99447.06;6106862;23;19928;-75
2023/03/15 00:49:03;;;;;;;;;;;;;;;4.33;50.07;99435.91;6057245;23;19933;-75
2023/03/15 00:51:55;;;;;;;;;;;;;;;4.31;50.37;99429.88;6111271;23;19916;-75
2023/03/15 00:54:36;;;;;;;;;;;;;;;4.32;50.89;99434.19;6090131;23;19924;-75
2023/03/15 01:01:10;;;;;;;;;;;;;;;4.24;50.14;99438.41;6101746;23;19923;-75
2023/03/15 01:03:44;;;;;;;;;;;;;;;4.18;51.01;99437.47;6123656;23;19936;-74
2023/03/15 01:06:14;;;;;;;;;;;;;;;4.17;50.65;99429.75;6096871;23;20251;-75
2023/03/15 01:09:02;;;;;;;;;;;;;;;4.17;50.96;99440.91;6117409;23;19960;-75
2023/03/15 01:11:31;;;;;;;;;;;;;;;4.16;50.92;99446.03;6123167;23;19913;-75
2023/03/15 01:14:26;;;;;;;;;;;;;;;4.15;51.04;99424.56;6124698;23;19925;-75
2023/03/15 01:17:00;;;;;;;;;;;;;;;4.12;51.27;99441.69;6122293;23;19923;-77
2023/03/15 01:20:00;;;;;;;;;;;;;;;4.11;51.45;99429.66;6121307;23;19923;-76
2023/03/15 01:22:27;;;;;;;;;;;;;;;4.10;51.64;99426.22;6121347;23;19920;-76
2023/03/15 01:24:54;;;;;;;;;;;;;;;4.08;51.46;99422.78;6122482;23;19917;-76
2023/03/15 01:27:23;;;;;;;;;;;;;;;3.76;51.26;99380.34;6120132;23;19917;-76
2023/03/15 01:30:19;;;;;;;;;;;;;;;4.04;51.74;99436.47;6096255;23;20028;-76
2023/03/15 01:32:47;;;;;;;;;;;;;;;4.05;51.70;99427.91;6119266;23;19956;-78
2023/03/15 01:35:18;;;;;;;;;;;;;;;4.04;52.19;99433.88;6120895;23;19917;-77
2023/03/15 01:37:50;;;;;;;;;;;;;;;4.04;52.00;99428.75;6094629;23;19917;-76
2023/03/15 01:40:18;;;;;;;;;;;;;;;4.05;51.84;99430.47;6120759;23;19922;-76
2023/03/15 01:43:03;;;;;;;;;;;;;;;4.04;52.36;99424.44;6122242;23;19928;-77
2023/03/15 01:49:17;;;;;;;;;;;;;;;4.02;52.83;99422.69;6119382;23;19923;-76
2023/03/15 01:52:04;;;;;;;;;;;;;;;3.99;52.83;99426.09;6096298;23;20262;-76
2023/03/15 01:55:25;;;;;;;;;;;;;;;3.96;52.08;99428.66;6123319;23;19996;-77
2023/03/15 01:58:07;;;;;;;;;;;;;;;3.97;52.68;99426.94;6098995;23;19917;-75
2023/03/15 02:01:07;;;;;;;;;;;;;;;3.97;53.12;99424.34;6117628;23;19913;-77
2023/03/15 02:03:54;;;;;;;;;;;;;;;3.98;52.55;99446.69;6120685;23;19968;-78
2023/03/15 02:10:49;;;;;;;;;;;;;;;4.10;52.49;99439.09;6105842;23;19916;-76
2023/03/15 02:14:25;;;;;;;;;;;;;;;4.17;53.02;99456.34;6095360;23;19924;-78
2023/03/15 02:17:28;;;;;;;;;;;;;;;4.21;52.73;99429.78;6097541;23;19917;-76
2023/03/15 02:20:34;;;;;;;;;;;;;;;4.27;52.79;99447.00;6037818;23;19990;-75
2023/03/15 02:24:21;;;;;;;;;;;;;;;4.32;53.09;99435.06;6025771;23;19923;-77
2023/03/15 02:26:53;;;;;;;;;;;;;;;4.38;53.39;99429.09;6097519;23;19924;-77
2023/03/15 02:29:20;;;;;;;;;;;;;;;4.42;53.09;99436.00;6073286;23;19916;-76
2023/03/15 02:32:03;;;;;;;;;;;;;;;4.45;53.04;99442.91;6121064;23;19971;-76
2023/03/15 02:38:30;;;;;;;;;;;;;;;4.51;53.09;99430.97;6121959;23;19916;-77
2023/03/15 02:42:11;;;;;;;;;;;;;;;4.57;53.18;99440.47;6078086;23;19945;-76
2023/03/15 02:44:42;;;;;;;;;;;;;;;4.57;52.88;99434.44;6090352;23;19917;-77
2023/03/15 02:50:42;;;;;;;;;;;;;;;4.61;52.57;99438.78;6040226;23;19924;-77
2023/03/15 02:54:33;;;;;;;;;;;;;;;4.66;52.31;99440.53;5978014;24;19933;-75
2023/03/15 02:57:07;;;;;;;;;;;;;;;4.64;52.05;99437.06;5952229;24;20298;-77
2023/03/15 03:09:26;;;;;;;;;;;;;;;4.68;52.37;99438.00;6009053;23;19928;-76
2023/03/15 03:12:52;;;;;;;;;;;;;;;4.67;51.74;99456.88;5992076;23;19922;-78
2023/03/15 03:20:22;;;;;;;;;;;;;;;4.57;51.80;99450.78;6006732;23;20239;-77
2023/03/15 03:23:10;;;;;;;;;;;;;;;4.53;51.97;99460.16;5960689;23;20298;-76
2023/03/15 03:30:27;;;;;;;;;;;;;;;4.39;52.76;99456.59;6002551;23;19965;-78
2023/03/15 03:36:19;;;;;;;;;;;;;;;4.28;52.68;99469.34;6006136;23;20466;-76
2023/03/15 03:43:53;;;;;;;;;;;;;;;4.20;52.70;99463.25;6034580;23;19928;-76
2023/03/15 03:46:24;;;;;;;;;;;;;;;4.16;52.56;99459.78;6033490;23;19928;-76
2023/03/15 03:53:14;;;;;;;;;;;;;;;4.11;52.83;99465.72;6063663;23;20012;-77
2023/03/15 03:55:45;;;;;;;;;;;;;;;4.10;53.26;99459.69;6061481;23;19922;-75
2023/03/15 03:58:25;;;;;;;;;;;;;;;4.08;52.72;99461.41;6086205;23;20004;-76
2023/03/15 04:01:10;;;;;;;;;;;;;;;4.10;52.98;99472.56;6062321;23;20289;-76
2023/03/15 04:04:27;;;;;;;;;;;;;;;4.10;52.63;99467.41;6013883;23;19957;-76
2023/03/15 04:06:56;;;;;;;;;;;;;;;4.12;53.17;99473.44;6009853;23;19928;-77
2023/03/15 04:10:37;;;;;;;;;;;;;;;4.12;52.78;99478.59;6064330;23;20194;-78
2023/03/15 04:13:05;;;;;;;;;;;;;;;4.14;52.81;99497.53;6064610;23;19917;-77
2023/03/15 04:19:27;;;;;;;;;;;;;;;4.14;52.84;99469.19;6066211;23;20223;-77
2023/03/15 04:22:17;;;;;;;;;;;;;;;4.18;52.84;99475.25;6091574;23;20000;-79
2023/03/15 04:25:20;;;;;;;;;;;;;;;4.27;52.96;99477.94;6064108;23;19917;-78
2023/03/15 04:28:41;;;;;;;;;;;;;;;4.36;53.03;99467.75;6092182;23;19924;-79
2023/03/15 04:36:25;;;;;;;;;;;;;;;4.55;52.82;99475.66;6006546;23;19925;-77
2023/03/15 04:39:44;;;;;;;;;;;;;;;4.57;52.48;99485.97;5977299;23;19931;-77
2023/03/15 04:42:31;;;;;;;;;;;;;;;4.61;52.43;99474.84;6025200;23;19917;-76
2023/03/15 04:45:50;;;;;;;;;;;;;;;4.63;52.75;99515.28;6035639;23;19937;-75
2023/03/15 04:49:27;;;;;;;;;;;;;;;4.68;52.55;99503.28;6025581;23;19918;-75
2023/03/15 04:52:31;;;;;;;;;;;;;;;4.73;51.89;99490.47;6006230;23;19920;-75
2023/03/15 04:55:31;;;;;;;;;;;;;;;4.81;51.60;99487.94;6011587;23;19924;-76
2023/03/15 05:06:25;;;;;;;;;;;;;;;5.99;51.54;99481.91;6123502;23;19917;-73
2023/03/15 05:09:27;;;;;;;;;;;;;;;6.51;50.40;99497.63;6121156;23;19916;-76
2023/03/15 05:12:24;;;;;;;;;;;;;;;6.58;49.44;99458.84;6122345;23;19928;-74
2023/03/15 05:15:42;;;;;;;;;;;;;;;6.56;49.58;99501.09;5989146;23;19918;-76
2023/03/15 05:26:53;;;;;;;;;;;;;;;9.21;45.89;99504.75;6124837;23;20337;-78
2023/03/15 05:38:25;;;;;;;;;;;;;;;9.69;43.80;99506.91;6122589;23;19928;-78
2023/03/15 05:46:15;;;;;;;;;;;;;;;10.53;43.45;99528.50;6040185;23;20012;-75
2023/03/15 05:53:22;;;;;;;;;;;;;;;9.45;43.04;99525.34;6086809;23;19924;-74
2023/03/15 05:56:22;;;;;;;;;;;;;;;9.11;43.57;99529.94;6086096;23;19917;-73
2023/03/15 06:03:11;;;;;;;;;;;;;;;8.86;43.43;99559.47;6084694;23;21019;-74
2023/03/15 06:06:46;;;;;;;;;;;;;;;8.96;43.84;99555.09;6087112;23;19980;-74
2023/03/15 06:09:46;;;;;;;;;;;;;;;9.26;43.25;99553.16;6075745;23;20364;-75
2023/03/15 06:12:39;;;;;;;;;;;;;;;9.24;43.01;99556.66;6105236;23;19923;-76
2023/03/15 06:15:20;;;;;;;;;;;;;;;9.01;43.16;99553.34;6115684;23;19928;-75
2023/03/15 06:29:38;;;;;;;;;;;;;;;9.90;42.78;99561.28;6066117;23;19990;-75
2023/03/15 06:32:28;;;;;;;;;;;;;;;10.07;42.07;99558.50;6070554;23;20472;-73
2023/03/15 06:35:01;;;;;;;;;;;;;;;10.42;42.52;99561.63;6067849;23;19972;-73
2023/03/15 06:38:44;;;;;;;;;;;;;;;10.36;42.22;99546.94;6087310;23;20445;-75
2023/03/15 06:41:57;;;;;;;;;;;;;;;10.56;41.93;99556.25;6088143;23;20008;-76
2023/03/15 06:45:42;;;;;;;;;;;;;;;10.79;41.46;99565.50;6015879;23;20384;-74
2023/03/15 07:05:03;;;;;;;;;;;;;;;10.81;41.39;99568.94;6136693;23;19923;-75
2023/03/15 07:08:25;;;;;;;;;;;;;;;10.59;40.84;99566.63;6128403;23;19927;-76
2023/03/15 07:11:29;;;;;;;;;;;;;;;10.35;41.07;99565.13;6121733;23;19940;-75
2023/03/15 07:26:30;;;;;;;;;;;;;;;10.99;40.90;99565.22;6001443;23;19999;-77
2023/03/15 07:29:43;;;;;;;;;;;;;;;11.63;40.98;99572.06;5979820;23;19918;-76
2023/03/15 07:40:59;;;;;;;;;;;;;;;15.07;36.72;99577.06;6027016;23;20461;-75
2023/03/15 07:44:36;;;;;;;;;;;;;;;15.40;36.13;99574.31;6006439;23;19924;-75
2023/03/15 07:47:39;;;;;;;;;;;;;;;15.22;35.65;99607.19;6030397;23;19918;-77
2023/03/15 07:50:44;;;;;;;;;;;;;;;14.23;35.96;99603.03;6015104;23;19962;-74
2023/03/15 07:53:32;;;;;;;;;;;;;;;14.87;36.80;99606.50;6005000;23;20208;-75
2023/03/15 07:56:01;;;;;;;;;;;;;;;15.25;35.67;99607.09;6000620;23;19992;-75
2023/03/15 07:58:34;;;;;;;;;;;;;;;15.26;34.54;99576.50;6000605;23;20057;-76
2023/03/15 08:01:58;;;;;;;;;;;;;;;15.09;34.24;99600.63;6001021;23;19918;-75
2023/03/15 08:05:49;;;;;;;;;;;;;;;15.73;34.78;99617.81;5993047;23;19930;-76
2023/03/15 08:08:20;;;;;;;;;;;;;;;15.64;34.59;99613.75;5999332;23;19918;-73
2023/03/15 08:10:47;;;;;;;;;;;;;;;15.16;34.75;99613.50;5976919;23;20263;-74
2023/03/15 08:13:47;;;;;;;;;;;;;;;14.84;34.79;99617.06;5993045;23;19918;-75
2023/03/15 08:16:21;;;;;;;;;;;;;;;14.64;35.47;99613.25;6002058;23;19918;-74
2023/03/15 08:18:50;;;;;;;;;;;;;;;14.10;35.58;99620.81;6016792;23;19996;-75
2023/03/15 08:25:28;;;;;;;;;;;;;;;13.00;36.47;99612.06;5972740;24;19993;-76
2023/03/15 08:32:03;;;;;;;;;;;;;;;12.41;35.85;99615.91;6058717;23;19932;-74
2023/03/15 08:39:35;;;;;;;;;;;;;;;13.08;37.03;99610.16;5999409;23;19927;-75
2023/03/15 08:42:04;;;;;;;;;;;;;;;14.32;36.93;99625.47;5953977;23;19918;-76
2023/03/15 08:49:06;;;;;;;;;;;;;;;15.16;34.75;99638.81;5996274;23;20436;-76
2023/03/15 08:56:46;;;;;;;;;;;;;;;13.77;35.94;99612.06;6000594;23;19990;-77
2023/03/15 09:16:22;;;;;;;;;;;;;;;15.05;35.33;99598.09;5910071;24;19980;-77
2023/03/15 09:28:52;;;;;;;;;;;;;;;14.14;35.50;99611.97;5836944;24;20014;-76
2023/03/15 09:41:19;;;;;;;;;;;;;;;14.60;34.67;99624.72;5861030;24;19927;-77
2023/03/15 10:01:00;;;;;;;;;;;;;;;13.68;35.29;99602.69;5890291;24;20339;-77
2023/03/15 10:07:53;;;;;;;;;;;;;;;15.16;35.11;99602.13;6060519;23;19948;-76
2023/03/15 10:10:56;;;;;;;;;;;;;;;15.81;34.62;99597.44;6089960;23;19929;-78
2023/03/15 10:14:54;;;;;;;;;;;;;;;16.11;33.93;99577.16;6061129;23;19986;-76
2023/03/15 10:18:32;;;;;;;;;;;;;;;17.59;33.41;99585.63;6056170;23;19928;-75
2023/03/15 10:22:36;;;;;;;;;;;;;;;17.12;31.82;99570.84;6029595;23;19917;-76
2023/03/15 10:26:58;;;;;;;;;;;;;;;15.25;32.77;99504.88;6031727;23;20009;-76
2023/03/15 10:34:01;;;;;;;;;;;;;;;13.64;34.94;99570.56;5975736;23;20416;-79
2023/03/15 10:37:00;;;;;;;;;;;;;;;13.26;34.98;99575.78;6001666;23;19925;-76
2023/03/15 10:41:15;;;;;;;;;;;;;;;12.93;36.20;99587.84;5977186;23;19924;-76
2023/03/15 10:44:26;;;;;;;;;;;;;;;12.69;36.77;99574.44;5995045;23;19926;-79
2023/03/15 10:47:33;;;;;;;;;;;;;;;12.57;36.79;99596.44;5973740;24;19970;-77
2023/03/15 10:50:07;;;;;;;;;;;;;;;12.25;37.17;99600.50;5971257;24;20089;-76
2023/03/15 11:33:42;;;;;;;;;;;;;;;10.74;40.58;99594.16;5900925;24;19919;-76
2023/03/15 11:37:26;;;;;;;;;;;;;;;10.74;40.70;99615.00;6001162;23;19929;-76
2023/03/15 11:41:20;;;;;;;;;;;;;;;10.63;41.42;99603.88;5863347;24;19927;-74
2023/03/15 11:49:01;;;;;;;;;;;;;;;10.84;40.79;99593.19;5863128;24;19926;-76
2023/03/15 11:52:10;;;;;;;;;;;;;;;10.95;41.24;99605.19;5895546;24;20315;-74
2023/03/15 11:54:36;;;;;;;;;;;;;;;10.80;41.51;99588.03;5907991;24;20431;-78
2023/03/15 11:57:25;;;;;;;;;;;;;;;10.90;41.74;99594.84;5949132;24;19963;-75
2023/03/15 12:00:27;;;;;;;;;;;;;;;10.79;40.76;99621.00;5971385;24;19922;-73
2023/03/15 12:03:01;;;;;;;;;;;;;;;10.47;41.71;99601.47;5972537;24;19925;-77
2023/03/15 12:10:01;;;;;;;;;;;;;;;10.01;41.81;99617.50;6007655;23;19985;-74
2023/03/15 12:29:18;;;;;;;;;;;;;;;9.53;43.55;99603.19;6029493;23;19928;-75
2023/03/15 13:27:18;;;;;;;;;;;;;;;8.34;45.70;99615.00;5886727;24;19924;-75
2023/03/15 13:34:21;;;;;;;;;;;;;;;8.11;46.49;99628.03;5914388;24;19983;-76
2023/03/15 13:38:15;;;;;;;;;;;;;;;8.05;46.71;99630.63;5915439;24;19957;-74
2023/03/15 13:41:48;;;;;;;;;;;;;;;7.94;46.76;99604.72;5860463;24;20234;-76
2023/03/15 13:45:22;;;;;;;;;;;;;;;7.84;46.86;99633.22;5869188;24;19931;-76
2023/03/15 13:53:22;;;;;;;;;;;;;;;7.62;47.30;99613.34;5954768;24;19925;-75
2023/03/15 13:57:05;;;;;;;;;;;;;;;7.47;47.73;99620.25;5971158;24;20322;-75
2023/03/15 14:01:34;;;;;;;;;;;;;;;7.36;47.61;99611.63;6025335;23;19918;-74
2023/03/15 14:04:37;;;;;;;;;;;;;;;7.03;48.22;99557.25;6017141;23;19924;-73
2023/03/15 14:07:40;;;;;;;;;;;;;;;7.29;48.04;99615.91;6005747;23;19929;-75
2023/03/15 14:19:42;;;;;;;;;;;;;;;7.30;48.25;99611.63;6012916;23;19920;-75
2023/03/15 14:51:29;;;;;;;;;;;;;;;6.51;49.81;99621.72;5916691;24;19976;-79
2023/03/15 14:59:41;;;;;;;;;;;;;;;6.23;49.85;99624.13;5832908;24;20351;-76
2023/03/15 15:03:40;;;;;;;;;;;;;;;6.05;49.74;99625.75;5833812;24;20003;-77
2023/03/15 15:23:05;;;;;;;;;;;;;;;5.33;51.37;99639.78;5789400;24;20342;-75
2023/03/15 15:34:53;;;;;;;;;;;;;;;5.08;52.27;99657.56;5742747;24;19924;-77
2023/03/15 15:38:01;;;;;;;;;;;;;;;5.04;52.52;99662.69;5751616;24;19925;-76
2023/03/15 15:41:24;;;;;;;;;;;;;;;4.92;52.28;99658.25;5767382;24;19932;-77
2023/03/15 15:52:22;;;;;;;;;;;;;;;4.66;52.31;99658.78;5756129;24;20316;-76
2023/03/15 16:13:07;;;;;;;;;;;;;;;4.44;54.08;99681.69;6083935;23;20025;-76
2023/03/15 16:38:44;;;;;;;;;;;;;;;4.75;53.46;99707.84;5998136;23;20058;-77
2023/03/15 18:00:51;;;;;;;;;;;;;;;4.73;52.65;99711.28;6057520;23;19924;-77
2023/03/15 18:05:07;;;;;;;;;;;;;;;4.68;52.68;99709.50;6055488;23;20742;-77
2023/03/15 18:22:00;;;;;;;;;;;;;;;4.75;53.02;99705.28;5941150;24;19929;-79
2023/03/15 18:29:57;;;;;;;;;;;;;;;4.69;53.40;99710.38;5960700;24;19926;-73
2023/03/15 19:47:05;;;;;;;;;;;;;;;4.44;54.58;99676.53;5981634;24;19925;-77
2023/03/15 20:07:14;;;;;;;;;;;;;;;4.59;55.40;99675.88;5980220;24;20068;-77
2023/03/15 20:09:53;;;;;;;;;;;;;;;4.56;55.29;99673.25;5977413;24;19926;-78
2023/03/15 20:13:34;;;;;;;;;;;;;;;4.49;55.46;99663.69;6006004;23;19952;-77
2023/03/15 20:17:27;;;;;;;;;;;;;;;4.48;55.90;99665.44;6029186;23;19965;-77
2023/03/15 20:20:12;;;;;;;;;;;;;;;4.46;55.67;99659.38;6028341;23;20285;-75
2023/03/15 20:22:40;;;;;;;;;;;;;;;4.47;55.41;99652.50;6006294;23;19997;-78
2023/03/15 20:25:06;;;;;;;;;;;;;;;4.42;55.92;99660.19;5984856;23;20001;-76
2023/03/15 20:27:36;;;;;;;;;;;;;;;4.40;55.97;99654.13;6006788;23;20969;-77
2023/03/15 20:31:11;;;;;;;;;;;;;;;4.36;56.03;99650.66;6041410;23;19984;-76
2023/03/15 20:37:36;;;;;;;;;;;;;;;4.08;56.96;99662.28;6039590;23;19925;-75
2023/03/15 20:40:07;;;;;;;;;;;;;;;3.82;57.82;99660.16;6058524;23;20301;-75
2023/03/15 20:42:35;;;;;;;;;;;;;;;3.64;58.30;99660.69;6058414;23;19917;-75
2023/03/15 20:45:03;;;;;;;;;;;;;;;3.60;59.21;99654.66;6035295;23;20085;-75
2023/03/15 20:47:30;;;;;;;;;;;;;;;3.67;59.38;99649.59;6059489;23;19917;-76
2023/03/15 20:49:58;;;;;;;;;;;;;;;3.69;60.11;99658.19;6048081;23;19927;-71
2023/03/15 20:52:26;;;;;;;;;;;;;;;3.72;59.83;99663.41;6118584;23;19916;-74
2023/03/15 20:55:18;;;;;;;;;;;;;;;3.68;60.01;99666.75;6118983;23;20056;-76
2023/03/15 21:02:19;;;;;;;;;;;;;;;3.61;60.71;99661.53;6119570;23;19924;-75
2023/03/15 21:09:39;;;;;;;;;;;;;;;3.68;60.88;99665.06;6120484;23;20238;-73
2023/03/15 21:12:31;;;;;;;;;;;;;;;3.67;61.35;99658.19;6049919;23;20385;-76
2023/03/15 21:15:00;;;;;;;;;;;;;;;3.69;61.04;99658.19;6005793;23;19921;-76
2023/03/15 21:17:40;;;;;;;;;;;;;;;3.60;61.63;99656.34;6029970;23;20001;-76
2023/03/15 21:27:11;;;;;;;;;;;;;;;3.75;61.93;99663.47;6032569;23;19974;-75
2023/03/15 21:29:51;;;;;;;;;;;;;;;3.81;62.42;99653.28;6055458;23;19918;-77
2023/03/15 21:32:33;;;;;;;;;;;;;;;3.85;62.31;99649.03;6008321;23;19922;-76
2023/03/15 21:35:44;;;;;;;;;;;;;;;3.94;62.82;99650.88;6055882;23;19924;-75
2023/03/15 21:38:22;;;;;;;;;;;;;;;3.89;62.22;99653.38;6117826;23;19968;-73
2023/03/15 21:40:51;;;;;;;;;;;;;;;3.88;62.82;99657.66;6121242;23;19917;-74
2023/03/15 21:44:04;;;;;;;;;;;;;;;3.90;62.44;99668.00;6123153;23;19982;-77
2023/03/15 21:46:37;;;;;;;;;;;;;;;3.92;62.46;99664.59;6121647;23;19917;-75
2023/03/15 21:50:15;;;;;;;;;;;;;;;4.00;62.41;99663.84;6121456;23;19924;-73
2023/03/15 21:53:01;;;;;;;;;;;;;;;4.00;62.83;99664.72;6120931;23;19968;-74
2023/03/15 21:55:52;;;;;;;;;;;;;;;3.95;62.53;99655.19;6122528;23;19924;-74
2023/03/15 21:58:37;;;;;;;;;;;;;;;3.99;62.60;99656.97;6120647;23;20346;-77
2023/03/15 22:01:25;;;;;;;;;;;;;;;4.04;62.51;99660.50;6100038;23;19921;-75
2023/03/15 22:03:54;;;;;;;;;;;;;;;4.05;62.84;99655.34;6123180;23;19917;-75
2023/03/15 22:06:56;;;;;;;;;;;;;;;4.11;62.28;99664.03;6120292;23;19921;-75
2023/03/15 22:09:42;;;;;;;;;;;;;;;4.15;62.75;99660.66;6120502;23;19912;-76
2023/03/15 22:12:20;;;;;;;;;;;;;;;4.11;62.75;99662.31;6121234;23;20349;-74
2023/03/15 22:14:54;;;;;;;;;;;;;;;4.13;62.49;99658.03;6106258;23;19995;-73
2023/03/15 22:17:21;;;;;;;;;;;;;;;4.09;62.17;99656.25;6121145;23;19980;-73
2023/03/15 22:20:01;;;;;;;;;;;;;;;4.05;62.33;99663.06;6095963;23;20248;-73
2023/03/15 22:22:38;;;;;;;;;;;;;;;4.04;62.53;99660.50;6097520;23;19920;-73
2023/03/15 22:25:32;;;;;;;;;;;;;;;4.02;62.92;99657.03;6121871;23;19917;-74
2023/03/15 22:28:19;;;;;;;;;;;;;;;4.05;61.95;99663.06;6114320;23;19927;-73
2023/03/15 22:30:54;;;;;;;;;;;;;;;3.99;62.15;99668.13;6120113;23;20107;-72
2023/03/15 22:33:27;;;;;;;;;;;;;;;4.03;62.46;99661.34;6122908;23;19916;-74
2023/03/15 22:35:58;;;;;;;;;;;;;;;4.09;62.68;99669.13;6119845;23;19921;-73
2023/03/15 22:38:49;;;;;;;;;;;;;;;4.14;62.56;99667.50;6121698;23;19916;-75
2023/03/15 22:41:16;;;;;;;;;;;;;;;4.19;62.75;99676.16;6077723;23;20011;-73
2023/03/15 22:43:45;;;;;;;;;;;;;;;4.19;62.28;99665.88;6121782;23;19916;-72
2023/03/15 22:46:12;;;;;;;;;;;;;;;4.19;62.18;99665.88;6120955;23;19923;-71
2023/03/15 22:48:38;;;;;;;;;;;;;;;4.19;62.54;99665.00;6119849;23;19920;-71
2023/03/15 22:51:06;;;;;;;;;;;;;;;4.15;62.10;99658.94;6109052;23;20507;-72
2023/03/15 22:53:35;;;;;;;;;;;;;;;4.14;62.01;99666.66;6095551;23;19912;-72
2023/03/15 22:56:05;;;;;;;;;;;;;;;4.12;62.44;99670.91;6120733;23;19921;-71
2023/03/15 22:58:39;;;;;;;;;;;;;;;4.10;62.11;99664.88;6120056;23;19921;-71
2023/03/15 23:01:11;;;;;;;;;;;;;;;4.11;62.35;99659.72;6119702;23;19940;-72
2023/03/15 23:04:00;;;;;;;;;;;;;;;4.17;62.11;99657.25;6091787;23;19992;-73
2023/03/15 23:06:47;;;;;;;;;;;;;;;4.15;62.68;99664.09;6121937;23;19927;-74
2023/03/15 23:09:15;;;;;;;;;;;;;;;4.00;62.19;99661.28;6118662;23;19917;-75
2023/03/15 23:11:45;;;;;;;;;;;;;;;3.89;62.56;99663.69;6096244;23;19944;-73
2023/03/15 23:14:11;;;;;;;;;;;;;;;3.83;62.61;99655.84;6120286;23;20297;-71
2023/03/15 23:16:47;;;;;;;;;;;;;;;3.79;63.08;99652.38;6095004;23;19941;-73
2023/03/15 23:19:17;;;;;;;;;;;;;;;3.73;63.42;99650.56;6123568;23;19917;-73
2023/03/15 23:21:49;;;;;;;;;;;;;;;3.71;63.33;99648.78;6097534;23;19949;-71
2023/03/15 23:24:17;;;;;;;;;;;;;;;3.72;63.98;99645.38;6096736;23;19920;-74
2023/03/15 23:26:48;;;;;;;;;;;;;;;3.69;63.77;99638.50;6121394;23;19917;-73
2023/03/15 23:29:17;;;;;;;;;;;;;;;3.65;63.58;99648.69;6123668;23;19916;-76
2023/03/15 23:32:08;;;;;;;;;;;;;;;3.69;64.30;99647.91;6120428;23;19927;-72
2023/03/15 23:34:41;;;;;;;;;;;;;;;3.70;64.32;99659.94;6122427;23;19924;-73
2023/03/15 23:37:13;;;;;;;;;;;;;;;3.61;63.76;99656.38;6123028;23;19917;-73
2023/03/15 23:39:40;;;;;;;;;;;;;;;3.55;64.61;99655.38;6144877;23;19917;-72
2023/03/15 23:42:24;;;;;;;;;;;;;;;3.50;64.63;99651.88;6121794;23;19923;-74
2023/03/15 23:45:00;;;;;;;;;;;;;;;3.51;64.86;99651.06;6119180;23;19935;-72
2023/03/15 23:47:28;;;;;;;;;;;;;;;3.51;65.28;99636.47;6123019;23;20337;-71
2023/03/15 23:50:08;;;;;;;;;;;;;;;3.61;65.38;99634.91;6123534;23;19958;-72
2023/03/15 23:55:44;;;;;;;;;;;;;;;3.63;65.70;99629.81;6123798;23;19917;-73
2023/03/15 23:58:10;;;;;;;;;;;;;;;3.59;65.35;99629.75;6120299;23;19963;-74
